sensor_id;sensor_type;location;lat;lon;timestamp;pressure;altitude;pressure_sealevel;temperature;humidity
62800;BME280;48842;51.046;13.796;2022-12-24T00:00:26;99067.84;;;12.72;71.11
62800;BME280;48842;51.046;13.796;2022-12-24T00:02:51;99056.25;;;12.80;71.27
62800;BME280;48842;51.046;13.796;2022-12-24T00:05:17;99057.91;;;12.84;70.85
62800;BME280;48842;51.046;13.796;2022-12-24T00:07:42;99060.47;;;12.87;70.78
62800;BME280;48842;51.046;13.796;2022-12-24T00:10:08;99057.75;;;12.90;70.68
62800;BME280;48842;51.046;13.796;2022-12-24T00:12:33;99070.00;;;12.91;70.34
62800;BME280;48842;51.046;13.796;2022-12-24T00:14:59;99085.09;;;12.83;69.00
62800;BME280;48842;51.046;13.796;2022-12-24T00:17:24;99087.31;;;12.98;69.53
62800;BME280;48842;51.046;13.796;2022-12-24T00:19:50;99097.84;;;12.98;68.10
62800;BME280;48842;51.046;13.796;2022-12-24T00:22:15;99093.34;;;13.02;68.00
62800;BME280;48842;51.046;13.796;2022-12-24T00:24:40;99098.47;;;13.06;68.02
62800;BME280;48842;51.046;13.796;2022-12-24T00:27:05;99102.72;;;13.12;67.61
62800;BME280;48842;51.046;13.796;2022-12-24T00:29:31;99092.16;;;13.14;67.58
62800;BME280;48842;51.046;13.796;2022-12-24T00:31:57;99092.16;;;13.14;67.40
62800;BME280;48842;51.046;13.796;2022-12-24T00:34:23;99104.31;;;13.18;67.45
62800;BME280;48842;51.046;13.796;2022-12-24T00:36:49;99134.28;;;13.12;66.98
62800;BME280;48842;51.046;13.796;2022-12-24T00:39:14;99112.34;;;13.13;67.50
62800;BME280;48842;51.046;13.796;2022-12-24T00:41:39;99099.25;;;13.12;67.88
62800;BME280;48842;51.046;13.796;2022-12-24T00:44:06;99103.09;;;12.98;68.98
62800;BME280;48842;51.046;13.796;2022-12-24T00:46:34;99096.88;;;13.01;68.82
62800;BME280;48842;51.046;13.796;2022-12-24T00:49:00;99082.97;;;12.97;69.32
62800;BME280;48842;51.046;13.796;2022-12-24T00:51:28;99093.47;;;12.97;68.90
62800;BME280;48842;51.046;13.796;2022-12-24T00:53:54;99101.44;;;12.94;69.19
62800;BME280;48842;51.046;13.796;2022-12-24T00:56:20;99121.66;;;12.90;69.44
62800;BME280;48842;51.046;13.796;2022-12-24T00:58:45;99119.00;;;12.92;69.64
62800;BME280;48842;51.046;13.796;2022-12-24T01:01:11;99130.53;;;12.88;69.01
62800;BME280;48842;51.046;13.796;2022-12-24T01:03:36;99128.66;;;12.91;68.72
62800;BME280;48842;51.046;13.796;2022-12-24T01:06:03;99129.44;;;12.95;68.56
62800;BME280;48842;51.046;13.796;2022-12-24T01:08:29;99129.44;;;12.95;68.33
62800;BME280;48842;51.046;13.796;2022-12-24T01:10:55;99138.25;;;12.94;67.90
62800;BME280;48842;51.046;13.796;2022-12-24T01:13:20;99139.91;;;12.98;67.99
62800;BME280;48842;51.046;13.796;2022-12-24T01:15:46;99139.09;;;12.95;67.39
62800;BME280;48842;51.046;13.796;2022-12-24T01:18:11;99138.97;;;12.99;66.62
62800;BME280;48842;51.046;13.796;2022-12-24T01:20:36;99146.84;;;12.99;66.14
62800;BME280;48842;51.046;13.796;2022-12-24T01:23:02;99151.31;;;12.97;65.33
62800;BME280;48842;51.046;13.796;2022-12-24T01:25:27;99155.50;;;13.04;65.51
62800;BME280;48842;51.046;13.796;2022-12-24T01:27:52;99159.91;;;13.02;65.21
62800;BME280;48842;51.046;13.796;2022-12-24T01:30:18;99158.88;;;13.09;65.34
62800;BME280;48842;51.046;13.796;2022-12-24T01:32:43;99174.81;;;13.03;64.34
62800;BME280;48842;51.046;13.796;2022-12-24T01:35:08;99167.59;;;13.12;64.91
62800;BME280;48842;51.046;13.796;2022-12-24T01:37:34;99160.50;;;13.14;64.48
62800;BME280;48842;51.046;13.796;2022-12-24T01:40:00;99153.53;;;13.13;64.43
62800;BME280;48842;51.046;13.796;2022-12-24T01:42:47;99155.31;;;13.12;64.43
62800;BME280;48842;51.046;13.796;2022-12-24T01:45:47;99175.69;;;13.02;65.10
62800;BME280;48842;51.046;13.796;2022-12-24T01:48:19;99179.38;;;12.97;65.36
62800;BME280;48842;51.046;13.796;2022-12-24T01:50:47;99178.41;;;12.99;64.98
62800;BME280;48842;51.046;13.796;2022-12-24T01:53:14;99185.47;;;12.97;65.05
62800;BME280;48842;51.046;13.796;2022-12-24T01:55:40;99188.19;;;12.94;64.58
62800;BME280;48842;51.046;13.796;2022-12-24T01:58:06;99196.00;;;12.97;64.93
62800;BME280;48842;51.046;13.796;2022-12-24T02:00:32;99201.25;;;12.97;64.69
62800;BME280;48842;51.046;13.796;2022-12-24T02:02:58;99203.88;;;12.97;64.47
62800;BME280;48842;51.046;13.796;2022-12-24T02:05:28;99223.16;;;12.96;64.65
62800;BME280;48842;51.046;13.796;2022-12-24T02:07:56;99211.75;;;12.97;64.70
62800;BME280;48842;51.046;13.796;2022-12-24T02:10:23;99211.69;;;13.00;64.62
62800;BME280;48842;51.046;13.796;2022-12-24T02:12:48;99213.41;;;13.01;64.99
62800;BME280;48842;51.046;13.796;2022-12-24T02:15:17;99215.19;;;12.99;64.80
62800;BME280;48842;51.046;13.796;2022-12-24T02:20:47;99211.75;;;12.97;65.08
62800;BME280;48842;51.046;13.796;2022-12-24T02:24:01;99224.00;;;12.98;65.05
62800;BME280;48842;51.046;13.796;2022-12-24T02:26:41;99230.97;;;12.99;64.97
62800;BME280;48842;51.046;13.796;2022-12-24T02:32:14;99233.59;;;12.99;64.81
62800;BME280;48842;51.046;13.796;2022-12-24T02:34:49;99236.22;;;12.99;64.79
62800;BME280;48842;51.046;13.796;2022-12-24T02:37:24;99249.41;;;12.98;64.68
62800;BME280;48842;51.046;13.796;2022-12-24T02:39:55;99250.34;;;12.95;64.07
62800;BME280;48842;51.046;13.796;2022-12-24T02:42:26;99246.75;;;12.99;64.02
62800;BME280;48842;51.046;13.796;2022-12-24T02:45:10;99255.47;;;13.01;64.03
62800;BME280;48842;51.046;13.796;2022-12-24T02:47:37;99261.69;;;12.97;64.12
62800;BME280;48842;51.046;13.796;2022-12-24T02:50:11;99266.00;;;13.01;63.62
62800;BME280;48842;51.046;13.796;2022-12-24T02:52:38;99262.44;;;13.02;64.33
62800;BME280;48842;51.046;13.796;2022-12-24T02:55:11;99271.25;;;13.01;64.47
62800;BME280;48842;51.046;13.796;2022-12-24T03:00:14;99265.16;;;12.99;64.94
62800;BME280;48842;51.046;13.796;2022-12-24T03:03:10;99274.00;;;12.97;64.78
62800;BME280;48842;51.046;13.796;2022-12-24T03:05:49;99277.47;;;12.97;64.48
62800;BME280;48842;51.046;13.796;2022-12-24T03:08:46;99283.69;;;12.93;64.66
62800;BME280;48842;51.046;13.796;2022-12-24T03:11:13;99287.13;;;12.95;64.42
62800;BME280;48842;51.046;13.796;2022-12-24T03:13:40;99284.44;;;13.00;64.37
62800;BME280;48842;51.046;13.796;2022-12-24T03:16:09;99293.22;;;12.99;64.28
62800;BME280;48842;51.046;13.796;2022-12-24T03:18:37;99294.91;;;13.01;64.28
62800;BME280;48842;51.046;13.796;2022-12-24T03:21:18;99299.34;;;12.98;64.28
62800;BME280;48842;51.046;13.796;2022-12-24T03:23:46;99299.28;;;13.01;64.24
62800;BME280;48842;51.046;13.796;2022-12-24T03:26:13;99300.16;;;13.01;64.53
62800;BME280;48842;51.046;13.796;2022-12-24T03:28:42;99304.50;;;13.02;64.48
62800;BME280;48842;51.046;13.796;2022-12-24T03:31:09;99296.75;;;12.96;64.83
62800;BME280;48842;51.046;13.796;2022-12-24T03:33:34;99304.66;;;12.96;64.75
62800;BME280;48842;51.046;13.796;2022-12-24T03:36:00;99306.53;;;12.91;65.08
62800;BME280;48842;51.046;13.796;2022-12-24T03:38:25;99310.06;;;12.90;64.96
62800;BME280;48842;51.046;13.796;2022-12-24T03:40:51;99310.06;;;12.90;65.01
62800;BME280;48842;51.046;13.796;2022-12-24T03:43:16;99309.97;;;12.93;64.63
62800;BME280;48842;51.046;13.796;2022-12-24T03:45:41;99309.19;;;12.89;65.08
62800;BME280;48842;51.046;13.796;2022-12-24T03:48:06;99310.91;;;12.90;65.04
62800;BME280;48842;51.046;13.796;2022-12-24T03:50:32;99304.78;;;12.90;64.88
62800;BME280;48842;51.046;13.796;2022-12-24T03:52:57;99311.91;;;12.85;64.86
62800;BME280;48842;51.046;13.796;2022-12-24T03:55:22;99317.19;;;12.83;64.75
62800;BME280;48842;51.046;13.796;2022-12-24T03:57:48;99335.53;;;12.86;64.46
62800;BME280;48842;51.046;13.796;2022-12-24T04:00:14;99317.16;;;12.85;64.61
62800;BME280;48842;51.046;13.796;2022-12-24T04:02:39;99326.72;;;12.89;64.47
62800;BME280;48842;51.046;13.796;2022-12-24T04:05:06;99331.94;;;12.90;64.17
62800;BME280;48842;51.046;13.796;2022-12-24T04:07:32;99325.81;;;12.90;64.15
62800;BME280;48842;51.046;13.796;2022-12-24T04:09:58;99332.84;;;12.89;64.01
62800;BME280;48842;51.046;13.796;2022-12-24T04:12:23;99331.00;;;12.93;63.96
62800;BME280;48842;51.046;13.796;2022-12-24T04:14:48;99342.53;;;12.87;64.10
62800;BME280;48842;51.046;13.796;2022-12-24T04:17:14;99338.06;;;12.91;64.12
62800;BME280;48842;51.046;13.796;2022-12-24T04:19:39;99353.84;;;12.91;64.08
62800;BME280;48842;51.046;13.796;2022-12-24T04:22:04;99338.94;;;12.91;63.74
62800;BME280;48842;51.046;13.796;2022-12-24T04:24:30;99343.25;;;12.94;63.43
62800;BME280;48842;51.046;13.796;2022-12-24T04:26:55;99346.72;;;12.96;63.43
62800;BME280;48842;51.046;13.796;2022-12-24T04:29:20;99351.28;;;12.88;62.14
62800;BME280;48842;51.046;13.796;2022-12-24T04:31:45;99359.09;;;12.91;62.42
62800;BME280;48842;51.046;13.796;2022-12-24T04:34:11;99350.19;;;12.98;62.53
62800;BME280;48842;51.046;13.796;2022-12-24T04:36:37;99366.00;;;12.95;61.89
62800;BME280;48842;51.046;13.796;2022-12-24T04:39:02;99366.00;;;12.95;61.55
62800;BME280;48842;51.046;13.796;2022-12-24T04:41:27;99364.97;;;13.02;61.78
62800;BME280;48842;51.046;13.796;2022-12-24T04:43:53;99387.03;;;12.95;60.71
62800;BME280;48842;51.046;13.796;2022-12-24T04:46:22;99405.44;;;12.97;61.12
62800;BME280;48842;51.046;13.796;2022-12-24T04:48:49;99390.50;;;12.97;60.43
62800;BME280;48842;51.046;13.796;2022-12-24T04:51:16;99377.41;;;12.96;60.69
62800;BME280;48842;51.046;13.796;2022-12-24T04:53:41;99387.56;;;13.11;60.94
62800;BME280;48842;51.046;13.796;2022-12-24T04:56:15;99394.81;;;13.01;60.39
62800;BME280;48842;51.046;13.796;2022-12-24T04:58:41;99389.44;;;13.06;60.50
62800;BME280;48842;51.046;13.796;2022-12-24T05:01:10;99403.47;;;13.05;60.35
62800;BME280;48842;51.046;13.796;2022-12-24T05:03:36;99407.88;;;13.04;60.39
62800;BME280;48842;51.046;13.796;2022-12-24T05:06:07;99413.03;;;13.09;60.15
62800;BME280;48842;51.046;13.796;2022-12-24T05:08:33;99413.84;;;13.11;60.26
62800;BME280;48842;51.046;13.796;2022-12-24T05:10:59;99420.91;;;13.09;60.23
62800;BME280;48842;51.046;13.796;2022-12-24T05:13:26;99414.78;;;13.10;60.28
62800;BME280;48842;51.046;13.796;2022-12-24T05:15:51;99424.66;;;12.99;60.51
62800;BME280;48842;51.046;13.796;2022-12-24T05:18:16;99424.53;;;13.03;60.51
62800;BME280;48842;51.046;13.796;2022-12-24T05:20:42;99430.59;;;13.08;60.52
62800;BME280;48842;51.046;13.796;2022-12-24T05:23:14;99445.59;;;13.02;60.40
62800;BME280;48842;51.046;13.796;2022-12-24T05:25:58;99453.56;;;12.99;60.95
62800;BME280;48842;51.046;13.796;2022-12-24T05:28:42;99449.19;;;12.98;61.21
62800;BME280;48842;51.046;13.796;2022-12-24T05:31:07;99446.59;;;12.96;61.33
62800;BME280;48842;51.046;13.796;2022-12-24T05:33:32;99472.03;;;12.96;61.20
62800;BME280;48842;51.046;13.796;2022-12-24T05:35:58;99473.22;;;12.79;61.79
62800;BME280;48842;51.046;13.796;2022-12-24T05:38:23;99465.28;;;12.82;61.86
62800;BME280;48842;51.046;13.796;2022-12-24T05:40:48;99457.44;;;12.81;62.24
62800;BME280;48842;51.046;13.796;2022-12-24T05:43:13;99461.06;;;12.73;62.09
62800;BME280;48842;51.046;13.796;2022-12-24T05:45:39;99461.25;;;12.63;61.93
62800;BME280;48842;51.046;13.796;2022-12-24T05:48:04;99471.81;;;12.61;62.32
62800;BME280;48842;51.046;13.796;2022-12-24T05:50:32;99480.47;;;12.66;62.08
62800;BME280;48842;51.046;13.796;2022-12-24T05:52:57;99481.34;;;12.67;61.98
62800;BME280;48842;51.046;13.796;2022-12-24T05:55:22;99483.16;;;12.63;61.93
62800;BME280;48842;51.046;13.796;2022-12-24T05:57:47;99491.13;;;12.57;61.42
62800;BME280;48842;51.046;13.796;2022-12-24T06:00:13;99493.66;;;12.65;61.50
62800;BME280;48842;51.046;13.796;2022-12-24T06:02:38;99488.31;;;12.68;61.42
62800;BME280;48842;51.046;13.796;2022-12-24T06:05:03;99504.19;;;12.63;60.68
62800;BME280;48842;51.046;13.796;2022-12-24T06:07:29;99502.47;;;12.61;60.86
62800;BME280;48842;51.046;13.796;2022-12-24T06:09:54;99509.47;;;12.62;61.13
62800;BME280;48842;51.046;13.796;2022-12-24T06:12:19;99512.88;;;12.65;61.03
62800;BME280;48842;51.046;13.796;2022-12-24T06:14:44;99528.81;;;12.57;60.75
62800;BME280;48842;51.046;13.796;2022-12-24T06:17:10;99564.66;;;12.60;60.84
62800;BME280;48842;51.046;13.796;2022-12-24T06:19:35;99543.81;;;12.49;61.38
62800;BME280;48842;51.046;13.796;2022-12-24T06:22:00;99542.97;;;12.49;61.26
62800;BME280;48842;51.046;13.796;2022-12-24T06:24:25;99546.47;;;12.48;61.62
62800;BME280;48842;51.046;13.796;2022-12-24T06:26:51;99549.94;;;12.51;61.51
62800;BME280;48842;51.046;13.796;2022-12-24T06:29:16;99551.59;;;12.55;61.38
62800;BME280;48842;51.046;13.796;2022-12-24T06:31:41;99553.38;;;12.53;61.20
62800;BME280;48842;51.046;13.796;2022-12-24T06:34:06;99562.25;;;12.46;61.06
62800;BME280;48842;51.046;13.796;2022-12-24T06:36:33;99568.53;;;12.37;60.92
62800;BME280;48842;51.046;13.796;2022-12-24T06:38:58;99570.31;;;12.35;61.02
62800;BME280;48842;51.046;13.796;2022-12-24T06:41:23;99567.69;;;12.35;61.15
62800;BME280;48842;51.046;13.796;2022-12-24T06:43:50;99563.31;;;12.36;61.00
62800;BME280;48842;51.046;13.796;2022-12-24T06:46:17;99564.09;;;12.43;60.32
62800;BME280;48842;51.046;13.796;2022-12-24T06:48:43;99567.50;;;12.46;60.47
62800;BME280;48842;51.046;13.796;2022-12-24T06:51:08;99578.00;;;12.46;60.19
62800;BME280;48842;51.046;13.796;2022-12-24T06:53:34;99575.47;;;12.42;59.27
62800;BME280;48842;51.046;13.796;2022-12-24T06:56:03;99598.22;;;12.41;59.47
62800;BME280;48842;51.046;13.796;2022-12-24T06:58:29;99580.63;;;12.48;59.04
62800;BME280;48842;51.046;13.796;2022-12-24T07:00:54;99588.50;;;12.48;58.37
62800;BME280;48842;51.046;13.796;2022-12-24T07:03:20;99606.03;;;12.47;58.08
62800;BME280;48842;51.046;13.796;2022-12-24T07:05:45;99612.13;;;12.48;57.54
62800;BME280;48842;51.046;13.796;2022-12-24T07:08:10;99617.34;;;12.51;57.14
62800;BME280;48842;51.046;13.796;2022-12-24T07:10:35;99620.66;;;12.62;57.03
62800;BME280;48842;51.046;13.796;2022-12-24T07:13:01;99626.78;;;12.63;56.52
62800;BME280;48842;51.046;13.796;2022-12-24T07:15:26;99639.94;;;12.61;56.03
62800;BME280;48842;51.046;13.796;2022-12-24T07:17:54;99627.66;;;12.63;55.91
62800;BME280;48842;51.046;13.796;2022-12-24T07:20:19;99640.72;;;12.68;56.04
62800;BME280;48842;51.046;13.796;2022-12-24T07:22:45;99650.31;;;12.70;55.48
62800;BME280;48842;51.046;13.796;2022-12-24T07:25:10;99646.72;;;12.74;55.94
62800;BME280;48842;51.046;13.796;2022-12-24T07:27:36;99667.84;;;12.68;55.71
62800;BME280;48842;51.046;13.796;2022-12-24T07:30:02;99662.50;;;12.74;55.45
62800;BME280;48842;51.046;13.796;2022-12-24T07:32:28;99665.22;;;12.68;54.99
62800;BME280;48842;51.046;13.796;2022-12-24T07:34:53;99664.28;;;12.74;55.27
62800;BME280;48842;51.046;13.796;2022-12-24T07:37:19;99668.66;;;12.73;54.85
62800;BME280;48842;51.046;13.796;2022-12-24T07:39:44;99667.78;;;12.73;55.19
62800;BME280;48842;51.046;13.796;2022-12-24T07:42:09;99658.22;;;12.70;54.73
62800;BME280;48842;51.046;13.796;2022-12-24T07:44:34;99668.75;;;12.67;54.61
62800;BME280;48842;51.046;13.796;2022-12-24T07:47:00;99668.84;;;12.61;54.67
62800;BME280;48842;51.046;13.796;2022-12-24T07:49:25;99676.63;;;12.67;54.58
62800;BME280;48842;51.046;13.796;2022-12-24T07:51:50;99675.88;;;12.61;54.52
62800;BME280;48842;51.046;13.796;2022-12-24T07:54:15;99681.97;;;12.61;54.23
62800;BME280;48842;51.046;13.796;2022-12-24T07:56:41;99693.38;;;12.62;54.29
62800;BME280;48842;51.046;13.796;2022-12-24T07:59:07;99697.78;;;12.60;54.25
62800;BME280;48842;51.046;13.796;2022-12-24T08:01:33;99704.84;;;12.56;54.57
62800;BME280;48842;51.046;13.796;2022-12-24T08:03:58;99707.41;;;12.61;54.38
62800;BME280;48842;51.046;13.796;2022-12-24T08:06:24;99710.94;;;12.56;54.79
62800;BME280;48842;51.046;13.796;2022-12-24T08:08:49;99704.78;;;12.59;55.23
62800;BME280;48842;51.046;13.796;2022-12-24T08:11:14;99709.22;;;12.54;54.93
62800;BME280;48842;51.046;13.796;2022-12-24T08:13:40;99704.88;;;12.53;55.69
62800;BME280;48842;51.046;13.796;2022-12-24T08:16:05;99713.66;;;12.52;55.96
62800;BME280;48842;51.046;13.796;2022-12-24T08:18:31;99711.91;;;12.51;56.57
62800;BME280;48842;51.046;13.796;2022-12-24T08:20:56;99726.13;;;12.36;57.24
62800;BME280;48842;51.046;13.796;2022-12-24T08:23:21;99739.34;;;12.30;57.11
62800;BME280;48842;51.046;13.796;2022-12-24T08:25:47;99743.56;;;12.42;57.30
62800;BME280;48842;51.046;13.796;2022-12-24T08:28:15;99762.06;;;12.34;57.81
62800;BME280;48842;51.046;13.796;2022-12-24T08:30:40;99755.84;;;12.39;57.89
62800;BME280;48842;51.046;13.796;2022-12-24T08:33:06;99753.16;;;12.44;57.51
62800;BME280;48842;51.046;13.796;2022-12-24T08:35:31;99757.53;;;12.44;57.63
62800;BME280;48842;51.046;13.796;2022-12-24T08:37:56;99761.16;;;12.33;58.01
62800;BME280;48842;51.046;13.796;2022-12-24T08:40:21;99766.38;;;12.36;57.90
62800;BME280;48842;51.046;13.796;2022-12-24T08:42:47;99771.63;;;12.36;58.10
62800;BME280;48842;51.046;13.796;2022-12-24T08:45:13;99768.94;;;12.44;57.50
62800;BME280;48842;51.046;13.796;2022-12-24T08:47:39;99780.31;;;12.43;57.31
62800;BME280;48842;51.046;13.796;2022-12-24T08:50:05;99780.34;;;12.40;57.36
62800;BME280;48842;51.046;13.796;2022-12-24T08:52:31;99787.28;;;12.46;57.42
62800;BME280;48842;51.046;13.796;2022-12-24T08:54:56;99791.72;;;12.40;57.99
62800;BME280;48842;51.046;13.796;2022-12-24T08:57:22;99802.16;;;12.45;57.77
62800;BME280;48842;51.046;13.796;2022-12-24T08:59:47;99797.81;;;12.46;57.23
62800;BME280;48842;51.046;13.796;2022-12-24T09:02:12;99812.78;;;12.37;57.80
62800;BME280;48842;51.046;13.796;2022-12-24T09:04:38;99810.03;;;12.47;57.41
62800;BME280;48842;51.046;13.796;2022-12-24T09:07:06;99822.28;;;12.48;56.88
62800;BME280;48842;51.046;13.796;2022-12-24T09:09:32;99820.53;;;12.47;57.28
62800;BME280;48842;51.046;13.796;2022-12-24T09:11:57;99821.41;;;12.49;56.94
62800;BME280;48842;51.046;13.796;2022-12-24T09:14:22;99837.97;;;12.52;56.48
62800;BME280;48842;51.046;13.796;2022-12-24T09:16:48;99816.94;;;12.54;56.20
62800;BME280;48842;51.046;13.796;2022-12-24T09:19:13;99824.72;;;12.65;56.41
62800;BME280;48842;51.046;13.796;2022-12-24T09:21:38;99835.22;;;12.65;55.37
62800;BME280;48842;51.046;13.796;2022-12-24T09:24:04;99824.69;;;12.66;55.78
62800;BME280;48842;51.046;13.796;2022-12-24T09:26:29;99832.47;;;12.74;55.69
62800;BME280;48842;51.046;13.796;2022-12-24T09:28:56;99836.78;;;12.80;55.58
62800;BME280;48842;51.046;13.796;2022-12-24T09:31:22;99845.53;;;12.79;54.17
62800;BME280;48842;51.046;13.796;2022-12-24T09:33:48;99837.66;;;12.77;54.56
62800;BME280;48842;51.046;13.796;2022-12-24T09:36:14;99850.69;;;12.88;54.20
62800;BME280;48842;51.046;13.796;2022-12-24T09:38:39;99855.03;;;12.89;53.53
62800;BME280;48842;51.046;13.796;2022-12-24T09:43:45;99853.22;;;12.94;52.97
62800;BME280;48842;51.046;13.796;2022-12-24T09:46:24;99870.66;;;13.01;52.99
62800;BME280;48842;51.046;13.796;2022-12-24T09:48:54;99872.41;;;13.01;52.45
62800;BME280;48842;51.046;13.796;2022-12-24T09:51:33;99864.38;;;13.12;52.47
62800;BME280;48842;51.046;13.796;2022-12-24T09:54:03;99873.16;;;13.09;52.29
62800;BME280;48842;51.046;13.796;2022-12-24T09:56:32;99875.72;;;13.15;52.38
62800;BME280;48842;51.046;13.796;2022-12-24T09:59:04;99875.63;;;13.23;52.46
62800;BME280;48842;51.046;13.796;2022-12-24T10:01:33;99885.16;;;13.28;51.88
62800;BME280;48842;51.046;13.796;2022-12-24T10:04:05;99890.38;;;13.33;52.14
62800;BME280;48842;51.046;13.796;2022-12-24T10:12:08;99889.47;;;13.33;51.97
62800;BME280;48842;51.046;13.796;2022-12-24T10:14:57;99908.78;;;13.33;51.76
62800;BME280;48842;51.046;13.796;2022-12-24T10:25:28;99912.41;;;13.24;51.71
62800;BME280;48842;51.046;13.796;2022-12-24T10:27:57;99907.19;;;13.23;51.90
62800;BME280;48842;51.046;13.796;2022-12-24T10:30:23;99907.91;;;13.31;51.80
62800;BME280;48842;51.046;13.796;2022-12-24T10:32:50;99919.34;;;13.32;51.82
62800;BME280;48842;51.046;13.796;2022-12-24T10:35:22;99926.38;;;13.28;51.96
62800;BME280;48842;51.046;13.796;2022-12-24T10:37:49;99915.78;;;13.34;52.09
62800;BME280;48842;51.046;13.796;2022-12-24T10:40:38;99919.28;;;13.36;52.18
62800;BME280;48842;51.046;13.796;2022-12-24T10:43:13;99928.16;;;13.27;52.21
62800;BME280;48842;51.046;13.796;2022-12-24T10:45:41;99916.69;;;13.33;52.08
62800;BME280;48842;51.046;13.796;2022-12-24T10:48:12;99905.31;;;13.30;51.77
62800;BME280;48842;51.046;13.796;2022-12-24T10:50:51;99914.91;;;13.35;52.29
62800;BME280;48842;51.046;13.796;2022-12-24T10:53:22;99920.28;;;13.26;51.69
62800;BME280;48842;51.046;13.796;2022-12-24T10:55:48;99921.94;;;13.36;52.26
62800;BME280;48842;51.046;13.796;2022-12-24T10:58:19;99930.69;;;13.35;52.11
62800;BME280;48842;51.046;13.796;2022-12-24T11:00:49;99943.88;;;13.32;52.23
62800;BME280;48842;51.046;13.796;2022-12-24T11:03:27;99945.63;;;13.32;52.13
62800;BME280;48842;51.046;13.796;2022-12-24T11:06:04;99949.13;;;13.32;52.15
62800;BME280;48842;51.046;13.796;2022-12-24T11:08:30;99951.69;;;13.38;52.21
62800;BME280;48842;51.046;13.796;2022-12-24T11:11:01;99956.06;;;13.39;52.26
62800;BME280;48842;51.046;13.796;2022-12-24T11:13:30;99957.72;;;13.47;52.59
62800;BME280;48842;51.046;13.796;2022-12-24T11:16:23;99970.16;;;13.35;52.63
62800;BME280;48842;51.046;13.796;2022-12-24T11:18:56;99956.06;;;13.41;53.06
62800;BME280;48842;51.046;13.796;2022-12-24T11:24:02;99964.09;;;13.25;53.65
62800;BME280;48842;51.046;13.796;2022-12-24T11:26:30;99962.41;;;13.23;53.63
62800;BME280;48842;51.046;13.796;2022-12-24T11:29:20;99976.38;;;13.26;54.08
62800;BME280;48842;51.046;13.796;2022-12-24T11:31:46;99972.03;;;13.22;54.22
62800;BME280;48842;51.046;13.796;2022-12-24T11:34:23;99978.09;;;13.31;53.96
62800;BME280;48842;51.046;13.796;2022-12-24T11:36:50;99976.38;;;13.26;53.94
62800;BME280;48842;51.046;13.796;2022-12-24T11:39:21;99988.56;;;13.35;54.00
62800;BME280;48842;51.046;13.796;2022-12-24T11:41:48;99999.09;;;13.35;54.13
62800;BME280;48842;51.046;13.796;2022-12-24T11:44:23;99999.91;;;13.42;54.62
62800;BME280;48842;51.046;13.796;2022-12-24T11:46:49;99989.34;;;13.43;54.86
62800;BME280;48842;51.046;13.796;2022-12-24T11:49:28;99989.41;;;13.40;54.99
62800;BME280;48842;51.046;13.796;2022-12-24T11:55:11;100007.78;;;13.42;55.17
62800;BME280;48842;51.046;13.796;2022-12-24T11:57:45;100012.09;;;13.49;55.31
62800;BME280;48842;51.046;13.796;2022-12-24T12:00:12;100015.63;;;13.47;55.64
62800;BME280;48842;51.046;13.796;2022-12-24T12:02:40;100017.44;;;13.40;55.44
62800;BME280;48842;51.046;13.796;2022-12-24T12:05:11;100011.25;;;13.44;55.34
62800;BME280;48842;51.046;13.796;2022-12-24T12:07:40;100022.66;;;13.44;55.80
62800;BME280;48842;51.046;13.796;2022-12-24T12:12:43;100025.13;;;13.57;55.63
62800;BME280;48842;51.046;13.796;2022-12-24T12:15:15;100026.81;;;13.63;55.42
62800;BME280;48842;51.046;13.796;2022-12-24T12:17:53;100022.41;;;13.63;55.43
62800;BME280;48842;51.046;13.796;2022-12-24T12:20:28;100020.59;;;13.68;55.44
62800;BME280;48842;51.046;13.796;2022-12-24T12:25:43;100025.91;;;13.64;55.40
62800;BME280;48842;51.046;13.796;2022-12-24T12:30:52;100032.06;;;13.63;55.07
62800;BME280;48842;51.046;13.796;2022-12-24T12:36:59;100022.53;;;13.55;55.08
62800;BME280;48842;51.046;13.796;2022-12-24T12:39:34;100020.75;;;13.56;55.40
62800;BME280;48842;51.046;13.796;2022-12-24T12:42:03;100024.22;;;13.59;55.56
62800;BME280;48842;51.046;13.796;2022-12-24T12:50:22;100035.72;;;13.52;56.07
62800;BME280;48842;51.046;13.796;2022-12-24T12:56:14;100039.25;;;13.50;56.13
62800;BME280;48842;51.046;13.796;2022-12-24T12:58:47;100037.53;;;13.47;56.04
62800;BME280;48842;51.046;13.796;2022-12-24T13:04:00;100025.28;;;13.44;55.95
62800;BME280;48842;51.046;13.796;2022-12-24T13:06:39;100027.88;;;13.46;56.38
62800;BME280;48842;51.046;13.796;2022-12-24T13:17:57;100040.94;;;13.55;56.23
62800;BME280;48842;51.046;13.796;2022-12-24T13:20:31;100046.19;;;13.57;56.38
62800;BME280;48842;51.046;13.796;2022-12-24T13:23:17;100046.97;;;13.64;56.66
62800;BME280;48842;51.046;13.796;2022-12-24T13:25:45;100047.72;;;13.72;56.27
62800;BME280;48842;51.046;13.796;2022-12-24T13:28:29;100048.53;;;13.75;56.13
62800;BME280;48842;51.046;13.796;2022-12-24T13:36:20;100039.44;;;14.00;55.52
62800;BME280;48842;51.046;13.796;2022-12-24T13:38:51;100043.72;;;14.07;55.19
62800;BME280;48842;51.046;13.796;2022-12-24T13:41:37;100042.78;;;14.11;55.30
62800;BME280;48842;51.046;13.796;2022-12-24T13:52:29;100045.94;;;14.33;54.81
62800;BME280;48842;51.046;13.796;2022-12-24T13:57:41;100055.69;;;14.29;53.95
62800;BME280;48842;51.046;13.796;2022-12-24T14:02:48;100053.81;;;14.35;54.07
62800;BME280;48842;51.046;13.796;2022-12-24T14:05:26;100053.81;;;14.35;54.20
62800;BME280;48842;51.046;13.796;2022-12-24T14:07:54;100063.53;;;14.32;54.51
62800;BME280;48842;51.046;13.796;2022-12-24T14:10:23;100054.72;;;14.32;54.29
62800;BME280;48842;51.046;13.796;2022-12-24T14:12:50;100068.84;;;14.28;53.61
62800;BME280;48842;51.046;13.796;2022-12-24T14:18:21;100075.91;;;14.26;53.84